Airfield :
LOGIN :

Register | Disclaimer

   EN    FR    IT 

 










Legend :    VFR   Marginal VFR   IFR   Intensive IFR   Very Intensive IFR
Visi :
Ceiling :
>= 8 km
>= 3000ft
5 to 8 km
1000 to 3000 ft
1500m to 5 km
500 to 1000 ft
800 to 1500m
200 to 500 ft
< 800m
< 200 ft
Symbols :   Thunderstorms  Fog  Heavy snow  Heavy precipitations  Wind > 20 kt
SIGMETs :     Misc.  Thunderstorms  Icing  Turbulence  Mountain Waves  Volcanic Ashes






- Airport Elevation : 284 ft


EGUW - RAF Wattisham

CURRENT METAR :
  • 181900Z 21010KT 9999 FEW018 OVC120 05/03 Q1016 TEMPO SCT018 RMK BLU TEMPO WHT

EXPIRED METARs :
  • 181750Z 21008KT 9999 FEW024 BKN034 05/03 Q1017 TEMPO SCT022 RMK BLU TEMPO WHT
  • 181650Z 23010KT 9999 BKN040 BKN170 BKN200 05/03 Q1017 NOSIG RMK BLU BLU

TAF TAF EGUW
Valid from the 18 at 18:00 until the 19 at 02:00 UTC


181630Z 1818/1902 23010KT 9999 SCT040
TEMPO 1818/1819 SCT020
BECMG 1819/1822 BKN004
TEMPO 1820/1902 4000 RADZ



MET'MAP, your aeronautical weather chart ! - Copyright ORBIFLY December 2007 - Disclaimer

ORBIFLY MET'MAP TEAM :

Programming & Development : Alexandra Zaïnal
Concept & original design : Baudouin d'Aumeries
Assistance for programming : Marc-Olivier Méhu
Technical & hardware support : Manuel Goepfert

Contact : metmap@orbifly.com




SOURCES & CREDITS :

   NOAA